Flight Track Log - Related Links

Times and Time Zones

All times are in EDT time to prevent confusion due to time zone crossing. See the FLG3651 flight status page for this flight to view local times or setup timezone preferences in your user account.

Time Position Orientation Groundspeed Altitude Reporting Facility
EDT Latitude Longitude Course Direction KTS MPH feet Rate Location/Type
Sat 05:42:01 PM 36.2167 -86.6500 39° Northeast 218 251 3,700  Level Nashville TRACON
Sat 05:42:31 PM 36.2333 -86.6333 39° Northeast 245 282 4,200 2,400 Climbing Nashville TRACON
Sat 05:43:31 PM 36.3167 -86.6500 351° North 269 310 7,300 2,752 Climbing Nashville TRACON
Sat 05:44:44 PM 36.3936 -86.6756 345° North 280 322 10,300 1,850 Climbing Memphis Center
Sat 05:45:44 PM 36.4797 -86.7000 347° North 293 337 11,400 1,600 Climbing Memphis Center
Sat 05:46:44 PM 36.5681 -86.7269 346° North 317 365 13,500 1,983 Climbing Memphis Center
Sat 05:47:45 PM 36.6644 -86.7381 355° North 341 392 15,400 1,700 Climbing Memphis Center
Sat 05:48:44 PM 36.7625 -86.7414 358° North 355 409 16,900 1,412 Climbing Memphis Center
Sat 05:49:44 PM 36.8731 -86.7494 357° North 360 414 18,200 1,450 Climbing Memphis Center
Sat 05:50:44 PM 36.9775 -86.7603 355° North 366 421 19,800 1,047 Climbing Memphis Center
Sat 05:52:36 PM 37.1681 -86.7736 357° North 393 452 21,200 897 Climbing Indianapolis Center
Sat 05:53:38 PM 37.2803 -86.7839 356° North 400 460 22,400 1,171 Climbing Indianapolis Center
Sat 05:54:39 PM 37.3917 -86.7981 354° North 398 458 23,600 1,024 Climbing Indianapolis Center
Sat 05:55:41 PM 37.5072 -86.7828 North 417 480 24,500 774 Climbing Indianapolis Center
Sat 05:56:43 PM 37.6389 -86.7603 North 429 494 25,200 732 Climbing Indianapolis Center
Sat 05:57:44 PM 37.7586 -86.7400 North 434 499 26,000 732 Climbing Indianapolis Center
Sat 05:58:46 PM 37.8800 -86.7197 North 438 504 26,700 484 Climbing Indianapolis Center
Sat 05:59:48 PM 38.0006 -86.6975 North 438 504 27,000 146 Climbing Indianapolis Center
Sat 06:00:49 PM 38.1256 -86.6750 North 451 519 27,000  Level Indianapolis Center
Sat 06:01:51 PM 38.2744 -86.6494 North 452 520 27,000  Level Indianapolis Center
Sat 06:02:53 PM 38.3958 -86.6267 North 445 512 27,000  Level Indianapolis Center
Sat 06:03:54 PM 38.5164 -86.6056 North 439 505 27,000  Level Indianapolis Center
Sat 06:04:56 PM 38.6339 -86.5703 13° North 438 504 27,000  Level Indianapolis Center
Sat 06:05:58 PM 38.7508 -86.5175 19° North 444 511 27,000  Level Indianapolis Center
Sat 06:07:00 PM 38.8672 -86.4614 21° North 445 512 27,000  Level Indianapolis Center
Sat 06:08:01 PM 38.9844 -86.4081 19° North 446 513 27,000  Level Indianapolis Center
Sat 06:09:03 PM 39.1289 -86.3386 20° North 458 527 27,000  Level Indianapolis Center
Sat 06:10:05 PM 39.2469 -86.3325 North 426 490 27,000  Level Indianapolis Center
Sat 06:11:06 PM 39.3650 -86.3428 356° North 421 484 27,000  Level Indianapolis Center
Sat 06:12:08 PM 39.4847 -86.3111 12° North 465 535 27,000  Level Indianapolis Center
Sat 06:13:10 PM 39.6047 -86.2222 30° Northeast 495 570 27,000  Level Indianapolis Center
Sat 06:14:11 PM 39.7239 -86.1322 30° Northeast 494 568 27,000  Level Indianapolis Center
Sat 06:15:13 PM 39.8439 -86.0442 29° Northeast 493 567 27,000  Level Indianapolis Center
Sat 06:16:14 PM 39.9633 -85.9553 30° Northeast 492 566 27,000  Level Indianapolis Center
Sat 06:17:16 PM 40.0942 -85.8581 30° Northeast 480 552 27,000  Level Indianapolis Center
Sat 06:17:47 PM 40.1467 -85.8189 30° Northeast 479 551 27,000  Level Chicago Center
Sat 06:18:49 PM 40.2625 -85.7325 30° Northeast 478 550 27,000 -537 Level Chicago Center
Sat 06:19:50 PM 40.3783 -85.6456 30° Northeast 480 552 25,900 -1,122 Descending Chicago Center
Sat 06:20:52 PM 40.4914 -85.5600 30° Northeast 476 548 24,700 -927 Descending Chicago Center
Sat 06:21:53 PM 40.5989 -85.4778 30° Northeast 457 526 24,000 -341 Descending Chicago Center
Sat 06:22:55 PM 40.7253 -85.3844 29° Northeast 440 506 24,000 -293 Level Chicago Center
Sat 06:23:56 PM 40.8336 -85.3019 30° Northeast 445 512 23,400 -829 Descending Chicago Center
Sat 06:24:58 PM 40.9411 -85.2186 30° Northeast 450 518 22,300 -1,073 Descending Chicago Center
Sat 06:25:59 PM 41.0408 -85.1203 37° Northeast 457 526 21,200 -634 Descending Chicago Center
Sat 06:27:01 PM 41.1372 -85.0203 38° Northeast 448 516 21,000 -98 Descending Chicago Center
Sat 06:28:02 PM 41.2325 -84.9169 39° Northeast 445 512 21,000  Level Chicago Center
Sat 06:29:04 PM 41.3450 -84.7936 39° Northeast 441 507 21,000  Level Chicago Center
Sat 06:30:06 PM 41.4267 -84.6667 49° Northeast 454 522 21,000  Level Chicago Center
Sat 06:31:07 PM 41.5094 -84.5381 49° Northeast 459 528 21,000  Level Chicago Center
Sat 06:31:23 PM 41.5300 -84.5083 47° Northeast 452 520 21,000 -1,816 Level Cleveland Center
Sat 06:32:23 PM 41.6114 -84.3828 49° Northeast 452 520 18,700 -2,675 Descending Cleveland Center
Sat 06:32:46 PM 41.6508 -84.3183 51° Northeast 447 514 17,300 -3,153 Descending Cleveland Center
Sat 06:33:22 PM 41.6972 -84.2458 49° Northeast 425 489 15,600 -2,505 Descending Cleveland Center
Sat 06:34:17 PM 41.7608 -84.1464 49° Northeast 409 471 13,500 -1,862 Descending Cleveland Center
Sat 06:35:18 PM 41.8353 -84.0225 51° Northeast 402 463 12,000 -703 Descending Cleveland Center
Sat 06:36:25 PM 41.9181 -83.9042 47° Northeast 398 458 12,000  Level Cleveland Center
Sat 06:37:32 PM 42.0031 -83.7717 49° Northeast 413 475 12,000  Level Cleveland Center
Sat 06:38:23 PM 42.0642 -83.6794 48° Northeast 399 459 12,000  Level Cleveland Center
Sat 06:39:26 PM 42.1481 -83.5847 40° Northeast 347 399 12,000  Level FAA TRACON SMA TRACON (SMA)
Sat 06:39:45 PM 42.1714 -83.5639 33° Northeast 319 367 12,000  Level FAA TRACON SMA TRACON (SMA)
Sat 06:40:05 PM 42.1989 -83.5394 33° Northeast 299 344 12,000  Level FAA TRACON SMA TRACON (SMA)
Sat 06:40:26 PM 42.2197 -83.5225 31° Northeast 284 327 12,000 -600 Level FAA TRACON SMA TRACON (SMA)
Sat 06:40:45 PM 42.2400 -83.5072 29° Northeast 273 314 11,600 -1,500 Descending FAA TRACON SMA TRACON (SMA)
Sat 06:41:06 PM 42.2653 -83.4883 29° Northeast 270 311 11,000 -1,500 Descending FAA TRACON SMA TRACON (SMA)
Sat 06:41:25 PM 42.2850 -83.4747 27° Northeast 258 297 10,600 -1,650 Descending FAA TRACON SMA TRACON (SMA)
Sat 06:41:46 PM 42.3094 -83.4569 28° Northeast 258 297 9,900 -1,950 Descending FAA TRACON SMA TRACON (SMA)
Sat 06:42:05 PM 42.3283 -83.4436 28° Northeast 253 291 9,300 -1,692 Descending FAA TRACON SMA TRACON (SMA)
Sat 06:42:25 PM 42.3467 -83.4314 26° Northeast 241 277 8,800 -1,756 Descending FAA TRACON SMA TRACON (SMA)
Sat 06:42:46 PM 42.3692 -83.4167 26° Northeast 236 272 8,100 -1,800 Descending FAA TRACON SMA TRACON (SMA)
Sat 06:43:05 PM 42.3875 -83.4058 24° Northeast 236 272 7,600 -1,350 Descending FAA TRACON SMA TRACON (SMA)
Sat 06:43:26 PM 42.4061 -83.3944 24° Northeast 239 275 7,200 -1,200 Descending FAA TRACON SMA TRACON (SMA)
Sat 06:43:45 PM 42.4294 -83.3806 24° Northeast 240 276 6,800 -1,200 Descending FAA TRACON SMA TRACON (SMA)
Sat 06:44:06 PM 42.4467 -83.3653 33° Northeast 247 284 6,400 -1,317 Descending FAA TRACON SMA TRACON (SMA)
Sat 06:44:26 PM 42.4547 -83.3386 68° East 257 296 5,900 -1,692 Descending FAA TRACON SMA TRACON (SMA)
Sat 06:44:45 PM 42.4483 -83.3033 104° East 261 300 5,300 -1,800 Descending FAA TRACON SMA TRACON (SMA)
Sat 06:45:06 PM 42.4347 -83.2831 132° Southeast 235 270 4,700 -1,650 Descending FAA TRACON SMA TRACON (SMA)
Sat 06:45:25 PM 42.4133 -83.2778 170° South 218 251 4,200 -1,350 Descending FAA TRACON SMA TRACON (SMA)
Sat 06:45:46 PM 42.3956 -83.2758 175° South 220 253 3,800 -1,350 Descending FAA TRACON SMA TRACON (SMA)
Sat 06:46:05 PM 42.3739 -83.2736 176° South 221 254 3,300 -1,231 Descending FAA TRACON SMA TRACON (SMA)
Sat 06:46:25 PM 42.3558 -83.2758 185° South 211 243 3,000 -439 Descending FAA TRACON SMA TRACON (SMA)
Sat 06:46:46 PM 42.3361 -83.2833 196° South 206 237 3,000 -150 Level FAA TRACON SMA TRACON (SMA)
Sat 06:47:05 PM 42.3181 -83.2967 209° Southwest 193 222 2,900 -600 Descending FAA TRACON SMA TRACON (SMA)
Sat 06:47:26 PM 42.3058 -83.3072 213° Southwest 182 209 2,600 -857 Descending FAA TRACON SMA TRACON (SMA)

Login

Don't have an account? Register now (free) for customized features, flight alerts, and more!